sensor_id;sensor_type;location;lat;lon;timestamp;P1;durP1;ratioP1;P2;durP2;ratioP2
61015;SDS011;46902;52.920;6.536;2023-02-14T00:01:46;33.03;;;23.42;;
61015;SDS011;46902;52.920;6.536;2023-02-14T00:04:12;30.40;;;23.35;;
61015;SDS011;46902;52.920;6.536;2023-02-14T00:06:39;29.92;;;22.40;;
61015;SDS011;46902;52.920;6.536;2023-02-14T00:09:05;31.23;;;23.73;;
61015;SDS011;46902;52.920;6.536;2023-02-14T00:11:43;33.15;;;23.88;;
61015;SDS011;46902;52.920;6.536;2023-02-14T00:14:10;30.67;;;23.10;;
61015;SDS011;46902;52.920;6.536;2023-02-14T00:16:54;31.05;;;23.67;;
61015;SDS011;46902;52.920;6.536;2023-02-14T00:19:20;29.20;;;22.17;;
61015;SDS011;46902;52.920;6.536;2023-02-14T00:21:46;31.73;;;22.88;;
61015;SDS011;46902;52.920;6.536;2023-02-14T00:24:13;28.17;;;21.50;;
61015;SDS011;46902;52.920;6.536;2023-02-14T00:26:41;30.17;;;21.38;;
61015;SDS011;46902;52.920;6.536;2023-02-14T00:29:08;28.73;;;21.55;;
61015;SDS011;46902;52.920;6.536;2023-02-14T00:31:35;29.55;;;22.73;;
61015;SDS011;46902;52.920;6.536;2023-02-14T00:34:02;30.58;;;21.60;;
61015;SDS011;46902;52.920;6.536;2023-02-14T00:36:29;27.13;;;20.50;;
61015;SDS011;46902;52.920;6.536;2023-02-14T00:38:54;30.15;;;21.25;;
61015;SDS011;46902;52.920;6.536;2023-02-14T00:41:20;30.05;;;21.73;;
61015;SDS011;46902;52.920;6.536;2023-02-14T00:43:47;25.33;;;20.25;;
61015;SDS011;46902;52.920;6.536;2023-02-14T00:46:14;30.77;;;22.23;;
61015;SDS011;46902;52.920;6.536;2023-02-14T00:48:41;27.92;;;20.95;;
61015;SDS011;46902;52.920;6.536;2023-02-14T00:51:07;30.20;;;21.95;;
61015;SDS011;46902;52.920;6.536;2023-02-14T00:53:33;29.35;;;21.50;;
61015;SDS011;46902;52.920;6.536;2023-02-14T00:55:59;29.92;;;22.73;;
61015;SDS011;46902;52.920;6.536;2023-02-14T00:58:25;31.75;;;22.00;;
61015;SDS011;46902;52.920;6.536;2023-02-14T01:00:51;29.60;;;21.63;;
61015;SDS011;46902;52.920;6.536;2023-02-14T01:03:17;34.40;;;25.20;;
61015;SDS011;46902;52.920;6.536;2023-02-14T01:05:42;31.33;;;22.92;;
61015;SDS011;46902;52.920;6.536;2023-02-14T01:08:08;33.78;;;24.40;;
61015;SDS011;46902;52.920;6.536;2023-02-14T01:10:37;31.13;;;22.33;;
61015;SDS011;46902;52.920;6.536;2023-02-14T01:13:02;29.88;;;21.98;;
61015;SDS011;46902;52.920;6.536;2023-02-14T01:15:29;30.92;;;23.10;;
61015;SDS011;46902;52.920;6.536;2023-02-14T01:17:55;35.42;;;23.80;;
61015;SDS011;46902;52.920;6.536;2023-02-14T01:20:22;32.95;;;23.83;;
61015;SDS011;46902;52.920;6.536;2023-02-14T01:22:48;34.42;;;23.45;;
61015;SDS011;46902;52.920;6.536;2023-02-14T01:25:14;32.25;;;23.33;;
61015;SDS011;46902;52.920;6.536;2023-02-14T01:27:39;31.10;;;22.63;;
61015;SDS011;46902;52.920;6.536;2023-02-14T01:30:05;32.70;;;22.38;;
61015;SDS011;46902;52.920;6.536;2023-02-14T01:32:32;35.28;;;23.98;;
61015;SDS011;46902;52.920;6.536;2023-02-14T01:34:58;35.38;;;23.67;;
61015;SDS011;46902;52.920;6.536;2023-02-14T01:37:24;35.22;;;24.75;;
61015;SDS011;46902;52.920;6.536;2023-02-14T01:39:50;35.85;;;24.23;;
61015;SDS011;46902;52.920;6.536;2023-02-14T01:42:16;31.77;;;23.65;;
61015;SDS011;46902;52.920;6.536;2023-02-14T01:47:10;32.80;;;23.15;;
61015;SDS011;46902;52.920;6.536;2023-02-14T01:49:37;35.45;;;23.35;;
61015;SDS011;46902;52.920;6.536;2023-02-14T01:52:20;34.92;;;24.08;;
61015;SDS011;46902;52.920;6.536;2023-02-14T01:55:09;34.03;;;23.27;;
61015;SDS011;46902;52.920;6.536;2023-02-14T01:57:40;29.90;;;21.85;;
61015;SDS011;46902;52.920;6.536;2023-02-14T02:00:09;33.42;;;24.08;;
61015;SDS011;46902;52.920;6.536;2023-02-14T02:02:54;36.15;;;25.00;;
61015;SDS011;46902;52.920;6.536;2023-02-14T02:05:22;36.30;;;24.20;;
61015;SDS011;46902;52.920;6.536;2023-02-14T02:07:51;35.55;;;24.92;;
61015;SDS011;46902;52.920;6.536;2023-02-14T02:10:21;34.33;;;24.25;;
61015;SDS011;46902;52.920;6.536;2023-02-14T02:12:47;34.08;;;23.50;;
61015;SDS011;46902;52.920;6.536;2023-02-14T02:15:17;33.50;;;24.42;;
61015;SDS011;46902;52.920;6.536;2023-02-14T02:23:32;34.85;;;24.25;;
61015;SDS011;46902;52.920;6.536;2023-02-14T02:29:06;40.15;;;25.33;;
61015;SDS011;46902;52.920;6.536;2023-02-14T02:31:37;37.60;;;25.25;;
61015;SDS011;46902;52.920;6.536;2023-02-14T02:41:01;34.63;;;23.48;;
61015;SDS011;46902;52.920;6.536;2023-02-14T02:51:47;38.53;;;25.45;;
61015;SDS011;46902;52.920;6.536;2023-02-14T02:54:56;35.60;;;24.85;;
61015;SDS011;46902;52.920;6.536;2023-02-14T02:57:25;36.60;;;24.65;;
61015;SDS011;46902;52.920;6.536;2023-02-14T02:59:56;35.08;;;24.52;;
61015;SDS011;46902;52.920;6.536;2023-02-14T03:02:33;36.42;;;24.48;;
61015;SDS011;46902;52.920;6.536;2023-02-14T03:05:25;34.83;;;25.02;;
61015;SDS011;46902;52.920;6.536;2023-02-14T03:07:52;37.53;;;25.42;;
61015;SDS011;46902;52.920;6.536;2023-02-14T03:10:19;36.33;;;24.42;;
61015;SDS011;46902;52.920;6.536;2023-02-14T03:15:52;31.38;;;22.77;;
61015;SDS011;46902;52.920;6.536;2023-02-14T03:21:59;35.88;;;25.10;;
61015;SDS011;46902;52.920;6.536;2023-02-14T03:24:28;37.05;;;24.88;;
61015;SDS011;46902;52.920;6.536;2023-02-14T03:27:09;34.97;;;24.42;;
61015;SDS011;46902;52.920;6.536;2023-02-14T03:29:52;36.80;;;25.35;;
61015;SDS011;46902;52.920;6.536;2023-02-14T03:32:40;36.88;;;24.90;;
61015;SDS011;46902;52.920;6.536;2023-02-14T03:38:01;41.30;;;26.20;;
61015;SDS011;46902;52.920;6.536;2023-02-14T03:40:33;36.25;;;25.80;;
61015;SDS011;46902;52.920;6.536;2023-02-14T03:46:29;37.63;;;25.23;;
61015;SDS011;46902;52.920;6.536;2023-02-14T03:49:04;38.03;;;24.95;;
61015;SDS011;46902;52.920;6.536;2023-02-14T03:51:37;34.88;;;24.10;;
61015;SDS011;46902;52.920;6.536;2023-02-14T03:54:05;34.03;;;24.13;;
61015;SDS011;46902;52.920;6.536;2023-02-14T03:56:46;36.85;;;25.33;;
61015;SDS011;46902;52.920;6.536;2023-02-14T03:59:17;35.53;;;25.05;;
61015;SDS011;46902;52.920;6.536;2023-02-14T04:04:11;39.47;;;26.88;;
61015;SDS011;46902;52.920;6.536;2023-02-14T04:06:40;31.80;;;23.02;;
61015;SDS011;46902;52.920;6.536;2023-02-14T04:09:06;32.03;;;23.13;;
61015;SDS011;46902;52.920;6.536;2023-02-14T04:11:32;37.88;;;24.15;;
61015;SDS011;46902;52.920;6.536;2023-02-14T04:13:59;35.60;;;25.15;;
61015;SDS011;46902;52.920;6.536;2023-02-14T04:16:26;34.72;;;23.67;;
61015;SDS011;46902;52.920;6.536;2023-02-14T04:18:51;34.15;;;22.90;;
61015;SDS011;46902;52.920;6.536;2023-02-14T04:21:35;33.97;;;24.17;;
61015;SDS011;46902;52.920;6.536;2023-02-14T04:24:01;33.22;;;24.17;;
61015;SDS011;46902;52.920;6.536;2023-02-14T04:26:26;40.35;;;25.45;;
61015;SDS011;46902;52.920;6.536;2023-02-14T04:28:52;33.88;;;23.58;;
61015;SDS011;46902;52.920;6.536;2023-02-14T04:31:17;32.92;;;23.67;;
61015;SDS011;46902;52.920;6.536;2023-02-14T04:33:43;36.20;;;24.38;;
61015;SDS011;46902;52.920;6.536;2023-02-14T04:36:10;31.40;;;22.45;;
61015;SDS011;46902;52.920;6.536;2023-02-14T04:38:35;36.58;;;25.58;;
61015;SDS011;46902;52.920;6.536;2023-02-14T04:41:01;36.33;;;25.17;;
61015;SDS011;46902;52.920;6.536;2023-02-14T04:43:27;38.78;;;25.00;;
61015;SDS011;46902;52.920;6.536;2023-02-14T04:45:52;37.10;;;25.08;;
61015;SDS011;46902;52.920;6.536;2023-02-14T04:48:18;34.75;;;24.17;;
61015;SDS011;46902;52.920;6.536;2023-02-14T04:50:43;31.10;;;23.45;;
61015;SDS011;46902;52.920;6.536;2023-02-14T04:53:09;34.97;;;25.25;;
61015;SDS011;46902;52.920;6.536;2023-02-14T04:55:35;38.38;;;25.58;;
61015;SDS011;46902;52.920;6.536;2023-02-14T04:58:00;32.90;;;23.55;;
61015;SDS011;46902;52.920;6.536;2023-02-14T05:00:26;31.40;;;21.35;;
61015;SDS011;46902;52.920;6.536;2023-02-14T05:02:51;33.80;;;23.70;;
61015;SDS011;46902;52.920;6.536;2023-02-14T05:05:17;40.17;;;26.55;;
61015;SDS011;46902;52.920;6.536;2023-02-14T05:07:42;33.03;;;24.02;;
61015;SDS011;46902;52.920;6.536;2023-02-14T05:10:11;32.92;;;23.25;;
61015;SDS011;46902;52.920;6.536;2023-02-14T05:12:37;36.88;;;25.30;;
61015;SDS011;46902;52.920;6.536;2023-02-14T05:15:03;35.10;;;24.63;;
61015;SDS011;46902;52.920;6.536;2023-02-14T05:17:29;36.00;;;24.77;;
61015;SDS011;46902;52.920;6.536;2023-02-14T05:19:54;33.60;;;24.48;;
61015;SDS011;46902;52.920;6.536;2023-02-14T05:22:20;33.00;;;23.45;;
61015;SDS011;46902;52.920;6.536;2023-02-14T05:24:46;38.10;;;24.60;;
61015;SDS011;46902;52.920;6.536;2023-02-14T05:27:11;32.22;;;23.60;;
61015;SDS011;46902;52.920;6.536;2023-02-14T05:29:37;34.20;;;23.58;;
61015;SDS011;46902;52.920;6.536;2023-02-14T05:32:02;33.75;;;23.52;;
61015;SDS011;46902;52.920;6.536;2023-02-14T05:34:28;32.50;;;22.77;;
61015;SDS011;46902;52.920;6.536;2023-02-14T05:36:54;34.08;;;24.02;;
61015;SDS011;46902;52.920;6.536;2023-02-14T05:39:20;31.35;;;21.83;;
61015;SDS011;46902;52.920;6.536;2023-02-14T05:41:45;32.78;;;22.98;;
61015;SDS011;46902;52.920;6.536;2023-02-14T05:44:11;33.22;;;23.45;;
61015;SDS011;46902;52.920;6.536;2023-02-14T05:46:36;31.40;;;22.50;;
61015;SDS011;46902;52.920;6.536;2023-02-14T05:49:02;28.27;;;21.02;;
61015;SDS011;46902;52.920;6.536;2023-02-14T05:51:28;34.40;;;23.27;;
61015;SDS011;46902;52.920;6.536;2023-02-14T05:53:54;29.45;;;22.85;;
61015;SDS011;46902;52.920;6.536;2023-02-14T05:56:21;31.75;;;22.58;;
61015;SDS011;46902;52.920;6.536;2023-02-14T05:58:47;30.60;;;22.13;;
61015;SDS011;46902;52.920;6.536;2023-02-14T06:01:12;30.15;;;21.65;;
61015;SDS011;46902;52.920;6.536;2023-02-14T06:03:38;31.85;;;21.80;;
61015;SDS011;46902;52.920;6.536;2023-02-14T06:06:04;31.10;;;22.65;;
61015;SDS011;46902;52.920;6.536;2023-02-14T06:08:29;34.38;;;22.60;;
61015;SDS011;46902;52.920;6.536;2023-02-14T06:10:55;33.10;;;21.95;;
61015;SDS011;46902;52.920;6.536;2023-02-14T06:13:21;32.38;;;22.50;;
61015;SDS011;46902;52.920;6.536;2023-02-14T06:15:46;36.42;;;23.48;;
61015;SDS011;46902;52.920;6.536;2023-02-14T06:18:12;33.35;;;21.95;;
61015;SDS011;46902;52.920;6.536;2023-02-14T06:20:37;31.10;;;23.00;;
61015;SDS011;46902;52.920;6.536;2023-02-14T06:23:03;31.65;;;22.63;;
61015;SDS011;46902;52.920;6.536;2023-02-14T06:25:28;28.17;;;21.50;;
61015;SDS011;46902;52.920;6.536;2023-02-14T06:27:54;30.40;;;21.23;;
61015;SDS011;46902;52.920;6.536;2023-02-14T06:30:21;32.15;;;23.05;;
61015;SDS011;46902;52.920;6.536;2023-02-14T06:32:47;31.98;;;22.05;;
61015;SDS011;46902;52.920;6.536;2023-02-14T06:35:13;27.55;;;20.40;;
61015;SDS011;46902;52.920;6.536;2023-02-14T06:37:39;30.98;;;21.98;;
61015;SDS011;46902;52.920;6.536;2023-02-14T06:40:06;28.50;;;20.98;;
61015;SDS011;46902;52.920;6.536;2023-02-14T06:42:33;30.45;;;21.52;;
61015;SDS011;46902;52.920;6.536;2023-02-14T06:44:59;30.27;;;21.38;;
61015;SDS011;46902;52.920;6.536;2023-02-14T06:47:26;30.40;;;21.83;;
61015;SDS011;46902;52.920;6.536;2023-02-14T06:49:52;29.98;;;21.90;;
61015;SDS011;46902;52.920;6.536;2023-02-14T06:52:17;33.13;;;22.70;;
61015;SDS011;46902;52.920;6.536;2023-02-14T06:54:43;30.15;;;22.33;;
61015;SDS011;46902;52.920;6.536;2023-02-14T06:57:09;27.23;;;20.45;;
61015;SDS011;46902;52.920;6.536;2023-02-14T06:59:34;28.23;;;21.02;;
61015;SDS011;46902;52.920;6.536;2023-02-14T07:02:00;28.48;;;21.17;;
61015;SDS011;46902;52.920;6.536;2023-02-14T07:04:25;31.13;;;22.63;;
61015;SDS011;46902;52.920;6.536;2023-02-14T07:06:51;28.30;;;20.77;;
61015;SDS011;46902;52.920;6.536;2023-02-14T07:09:17;28.90;;;20.58;;
61015;SDS011;46902;52.920;6.536;2023-02-14T07:11:43;31.02;;;22.95;;
61015;SDS011;46902;52.920;6.536;2023-02-14T07:14:09;26.70;;;20.42;;
61015;SDS011;46902;52.920;6.536;2023-02-14T07:16:35;27.27;;;19.85;;
61015;SDS011;46902;52.920;6.536;2023-02-14T07:19:01;29.25;;;20.58;;
61015;SDS011;46902;52.920;6.536;2023-02-14T07:21:26;30.58;;;20.77;;
61015;SDS011;46902;52.920;6.536;2023-02-14T07:23:52;31.50;;;22.60;;
61015;SDS011;46902;52.920;6.536;2023-02-14T07:26:17;31.65;;;22.52;;
61015;SDS011;46902;52.920;6.536;2023-02-14T07:28:43;28.55;;;21.63;;
61015;SDS011;46902;52.920;6.536;2023-02-14T07:31:10;23.88;;;18.33;;
61015;SDS011;46902;52.920;6.536;2023-02-14T07:33:36;31.23;;;22.70;;
61015;SDS011;46902;52.920;6.536;2023-02-14T07:36:06;31.92;;;21.63;;
61015;SDS011;46902;52.920;6.536;2023-02-14T07:38:32;27.40;;;20.60;;
61015;SDS011;46902;52.920;6.536;2023-02-14T07:40:58;30.92;;;22.83;;
61015;SDS011;46902;52.920;6.536;2023-02-14T07:43:23;30.02;;;21.33;;
61015;SDS011;46902;52.920;6.536;2023-02-14T07:45:49;29.48;;;21.83;;
61015;SDS011;46902;52.920;6.536;2023-02-14T07:48:15;29.95;;;21.60;;
61015;SDS011;46902;52.920;6.536;2023-02-14T07:50:40;30.25;;;22.52;;
61015;SDS011;46902;52.920;6.536;2023-02-14T07:53:06;30.10;;;22.00;;
61015;SDS011;46902;52.920;6.536;2023-02-14T07:55:34;30.45;;;20.48;;
61015;SDS011;46902;52.920;6.536;2023-02-14T07:58:00;27.88;;;21.10;;
61015;SDS011;46902;52.920;6.536;2023-02-14T08:00:26;32.08;;;23.27;;
61015;SDS011;46902;52.920;6.536;2023-02-14T08:02:52;34.08;;;22.85;;
61015;SDS011;46902;52.920;6.536;2023-02-14T08:05:19;29.85;;;21.13;;
61015;SDS011;46902;52.920;6.536;2023-02-14T08:07:46;27.52;;;20.35;;
61015;SDS011;46902;52.920;6.536;2023-02-14T08:10:12;33.28;;;22.85;;
61015;SDS011;46902;52.920;6.536;2023-02-14T08:12:38;32.40;;;23.88;;
61015;SDS011;46902;52.920;6.536;2023-02-14T08:15:22;30.50;;;21.98;;
61015;SDS011;46902;52.920;6.536;2023-02-14T08:18:06;28.75;;;19.50;;
61015;SDS011;46902;52.920;6.536;2023-02-14T08:20:31;29.60;;;21.73;;
61015;SDS011;46902;52.920;6.536;2023-02-14T08:22:57;27.23;;;21.58;;
61015;SDS011;46902;52.920;6.536;2023-02-14T08:25:23;28.10;;;21.13;;
61015;SDS011;46902;52.920;6.536;2023-02-14T08:27:48;29.30;;;22.23;;
61015;SDS011;46902;52.920;6.536;2023-02-14T08:30:14;27.70;;;20.17;;
61015;SDS011;46902;52.920;6.536;2023-02-14T08:32:40;28.17;;;21.65;;
61015;SDS011;46902;52.920;6.536;2023-02-14T08:35:05;24.70;;;20.23;;
61015;SDS011;46902;52.920;6.536;2023-02-14T08:37:32;24.67;;;20.77;;
61015;SDS011;46902;52.920;6.536;2023-02-14T08:39:57;27.52;;;21.05;;
61015;SDS011;46902;52.920;6.536;2023-02-14T08:42:23;26.98;;;21.05;;
61015;SDS011;46902;52.920;6.536;2023-02-14T08:44:48;27.60;;;20.83;;
61015;SDS011;46902;52.920;6.536;2023-02-14T08:47:14;27.45;;;20.42;;
61015;SDS011;46902;52.920;6.536;2023-02-14T08:49:40;28.27;;;22.23;;
61015;SDS011;46902;52.920;6.536;2023-02-14T08:52:05;29.35;;;21.25;;
61015;SDS011;46902;52.920;6.536;2023-02-14T08:54:31;29.67;;;22.15;;
61015;SDS011;46902;52.920;6.536;2023-02-14T08:56:57;30.20;;;22.17;;
61015;SDS011;46902;52.920;6.536;2023-02-14T08:59:22;29.63;;;22.58;;
61015;SDS011;46902;52.920;6.536;2023-02-14T09:01:48;28.33;;;21.65;;
61015;SDS011;46902;52.920;6.536;2023-02-14T09:04:14;28.42;;;22.27;;
61015;SDS011;46902;52.920;6.536;2023-02-14T09:06:39;24.83;;;21.30;;
61015;SDS011;46902;52.920;6.536;2023-02-14T09:09:05;30.23;;;23.00;;
61015;SDS011;46902;52.920;6.536;2023-02-14T09:11:31;26.55;;;22.15;;
61015;SDS011;46902;52.920;6.536;2023-02-14T09:13:57;27.85;;;22.00;;
61015;SDS011;46902;52.920;6.536;2023-02-14T09:16:23;28.35;;;21.85;;
61015;SDS011;46902;52.920;6.536;2023-02-14T09:18:50;28.17;;;21.85;;
61015;SDS011;46902;52.920;6.536;2023-02-14T09:21:21;28.05;;;21.42;;
61015;SDS011;46902;52.920;6.536;2023-02-14T09:23:49;27.50;;;22.38;;
61015;SDS011;46902;52.920;6.536;2023-02-14T09:26:15;27.17;;;21.73;;
61015;SDS011;46902;52.920;6.536;2023-02-14T09:28:41;26.48;;;21.67;;
61015;SDS011;46902;52.920;6.536;2023-02-14T09:31:08;29.40;;;22.15;;
61015;SDS011;46902;52.920;6.536;2023-02-14T09:33:36;27.15;;;21.42;;
61015;SDS011;46902;52.920;6.536;2023-02-14T09:36:02;27.60;;;22.80;;
61015;SDS011;46902;52.920;6.536;2023-02-14T09:38:42;27.55;;;22.38;;
61015;SDS011;46902;52.920;6.536;2023-02-14T09:41:08;27.95;;;22.42;;
61015;SDS011;46902;52.920;6.536;2023-02-14T09:43:45;29.88;;;23.30;;
61015;SDS011;46902;52.920;6.536;2023-02-14T09:46:19;28.38;;;23.00;;
61015;SDS011;46902;52.920;6.536;2023-02-14T09:48:46;31.73;;;23.33;;
61015;SDS011;46902;52.920;6.536;2023-02-14T09:51:14;28.45;;;23.35;;
61015;SDS011;46902;52.920;6.536;2023-02-14T09:53:45;29.63;;;23.65;;
61015;SDS011;46902;52.920;6.536;2023-02-14T09:56:31;32.08;;;23.88;;
61015;SDS011;46902;52.920;6.536;2023-02-14T09:59:21;32.67;;;22.60;;
61015;SDS011;46902;52.920;6.536;2023-02-14T10:02:02;29.38;;;22.70;;
61015;SDS011;46902;52.920;6.536;2023-02-14T10:07:55;32.15;;;23.63;;
61015;SDS011;46902;52.920;6.536;2023-02-14T10:10:40;28.27;;;22.80;;
61015;SDS011;46902;52.920;6.536;2023-02-14T10:13:15;30.48;;;24.02;;
61015;SDS011;46902;52.920;6.536;2023-02-14T10:15:57;28.90;;;22.67;;
61015;SDS011;46902;52.920;6.536;2023-02-14T10:18:39;28.45;;;23.17;;
61015;SDS011;46902;52.920;6.536;2023-02-14T10:21:10;28.75;;;22.58;;
61015;SDS011;46902;52.920;6.536;2023-02-14T10:23:48;30.25;;;23.58;;
61015;SDS011;46902;52.920;6.536;2023-02-14T10:26:20;31.38;;;23.00;;
61015;SDS011;46902;52.920;6.536;2023-02-14T10:29:11;26.77;;;22.38;;
61015;SDS011;46902;52.920;6.536;2023-02-14T10:31:58;28.73;;;23.13;;
61015;SDS011;46902;52.920;6.536;2023-02-14T10:34:34;28.92;;;23.52;;
61015;SDS011;46902;52.920;6.536;2023-02-14T10:40:08;30.83;;;23.40;;
61015;SDS011;46902;52.920;6.536;2023-02-14T10:46:14;26.80;;;23.23;;
61015;SDS011;46902;52.920;6.536;2023-02-14T10:51:23;30.55;;;23.65;;
61015;SDS011;46902;52.920;6.536;2023-02-14T10:56:41;28.83;;;23.23;;
61015;SDS011;46902;52.920;6.536;2023-02-14T10:59:21;31.60;;;23.52;;
61015;SDS011;46902;52.920;6.536;2023-02-14T11:01:48;30.33;;;24.55;;
61015;SDS011;46902;52.920;6.536;2023-02-14T11:04:16;30.05;;;22.67;;
61015;SDS011;46902;52.920;6.536;2023-02-14T11:06:43;29.10;;;24.15;;
61015;SDS011;46902;52.920;6.536;2023-02-14T11:09:13;33.60;;;24.75;;
61015;SDS011;46902;52.920;6.536;2023-02-14T11:16:52;31.27;;;24.20;;
61015;SDS011;46902;52.920;6.536;2023-02-14T11:21:56;32.47;;;24.60;;
61015;SDS011;46902;52.920;6.536;2023-02-14T11:24:28;32.25;;;24.45;;
61015;SDS011;46902;52.920;6.536;2023-02-14T11:32:15;28.45;;;22.10;;
61015;SDS011;46902;52.920;6.536;2023-02-14T11:34:45;30.80;;;22.73;;
61015;SDS011;46902;52.920;6.536;2023-02-14T11:39:46;27.05;;;21.77;;
61015;SDS011;46902;52.920;6.536;2023-02-14T11:42:13;27.40;;;21.52;;
61015;SDS011;46902;52.920;6.536;2023-02-14T11:44:55;27.23;;;21.08;;
61015;SDS011;46902;52.920;6.536;2023-02-14T11:47:29;29.48;;;20.45;;
61015;SDS011;46902;52.920;6.536;2023-02-14T11:50:14;28.45;;;21.08;;
61015;SDS011;46902;52.920;6.536;2023-02-14T11:52:53;24.42;;;20.58;;
61015;SDS011;46902;52.920;6.536;2023-02-14T11:55:21;27.10;;;20.45;;
61015;SDS011;46902;52.920;6.536;2023-02-14T11:57:49;30.30;;;21.45;;
61015;SDS011;46902;52.920;6.536;2023-02-14T12:00:16;26.98;;;21.80;;
61015;SDS011;46902;52.920;6.536;2023-02-14T12:02:47;26.27;;;20.95;;
61015;SDS011;46902;52.920;6.536;2023-02-14T12:07:46;26.38;;;20.75;;
61015;SDS011;46902;52.920;6.536;2023-02-14T12:15:27;28.75;;;23.42;;
61015;SDS011;46902;52.920;6.536;2023-02-14T12:21:10;25.55;;;21.98;;
61015;SDS011;46902;52.920;6.536;2023-02-14T12:26:28;29.02;;;22.05;;
61015;SDS011;46902;52.920;6.536;2023-02-14T12:31:50;28.00;;;22.20;;
61015;SDS011;46902;52.920;6.536;2023-02-14T12:34:16;28.15;;;21.98;;
61015;SDS011;46902;52.920;6.536;2023-02-14T12:53:54;27.30;;;21.70;;
61015;SDS011;46902;52.920;6.536;2023-02-14T12:59:03;26.23;;;21.23;;
61015;SDS011;46902;52.920;6.536;2023-02-14T13:04:47;28.95;;;23.60;;
61015;SDS011;46902;52.920;6.536;2023-02-14T13:13:30;29.77;;;21.95;;
61015;SDS011;46902;52.920;6.536;2023-02-14T13:21:17;27.00;;;22.00;;
61015;SDS011;46902;52.920;6.536;2023-02-14T13:23:47;28.30;;;23.42;;
61015;SDS011;46902;52.920;6.536;2023-02-14T13:26:30;28.30;;;23.27;;
61015;SDS011;46902;52.920;6.536;2023-02-14T13:29:02;29.17;;;22.38;;
61015;SDS011;46902;52.920;6.536;2023-02-14T13:31:31;32.67;;;24.70;;
61015;SDS011;46902;52.920;6.536;2023-02-14T13:34:02;29.73;;;22.92;;
61015;SDS011;46902;52.920;6.536;2023-02-14T13:36:33;28.60;;;23.52;;
61015;SDS011;46902;52.920;6.536;2023-02-14T13:39:00;30.60;;;23.20;;
61015;SDS011;46902;52.920;6.536;2023-02-14T13:41:27;30.40;;;23.60;;
61015;SDS011;46902;52.920;6.536;2023-02-14T13:43:56;28.35;;;23.40;;
61015;SDS011;46902;52.920;6.536;2023-02-14T13:48:54;29.33;;;23.67;;
61015;SDS011;46902;52.920;6.536;2023-02-14T13:54:19;29.55;;;23.50;;
61015;SDS011;46902;52.920;6.536;2023-02-14T13:56:45;28.98;;;23.50;;
61015;SDS011;46902;52.920;6.536;2023-02-14T13:59:23;26.23;;;22.42;;
61015;SDS011;46902;52.920;6.536;2023-02-14T14:01:51;27.90;;;23.48;;
61015;SDS011;46902;52.920;6.536;2023-02-14T14:17:40;27.90;;;22.42;;
61015;SDS011;46902;52.920;6.536;2023-02-14T14:25:14;28.77;;;23.80;;
61015;SDS011;46902;52.920;6.536;2023-02-14T14:27:57;27.25;;;23.02;;
61015;SDS011;46902;52.920;6.536;2023-02-14T14:30:25;29.15;;;22.17;;
61015;SDS011;46902;52.920;6.536;2023-02-14T14:32:55;29.33;;;23.35;;
61015;SDS011;46902;52.920;6.536;2023-02-14T14:35:36;28.23;;;24.13;;
61015;SDS011;46902;52.920;6.536;2023-02-14T14:38:02;28.73;;;23.48;;
61015;SDS011;46902;52.920;6.536;2023-02-14T14:40:28;28.90;;;24.30;;
61015;SDS011;46902;52.920;6.536;2023-02-14T14:43:39;26.25;;;22.60;;
61015;SDS011;46902;52.920;6.536;2023-02-14T14:45:49;28.65;;;23.27;;
61015;SDS011;46902;52.920;6.536;2023-02-14T14:48:25;25.75;;;22.67;;
61015;SDS011;46902;52.920;6.536;2023-02-14T14:50:56;29.42;;;24.02;;
61015;SDS011;46902;52.920;6.536;2023-02-14T14:53:24;29.90;;;23.95;;
61015;SDS011;46902;52.920;6.536;2023-02-14T14:55:55;32.85;;;24.75;;
61015;SDS011;46902;52.920;6.536;2023-02-14T14:58:28;28.92;;;23.70;;
61015;SDS011;46902;52.920;6.536;2023-02-14T15:01:04;27.75;;;21.83;;
61015;SDS011;46902;52.920;6.536;2023-02-14T15:03:31;26.73;;;23.55;;
61015;SDS011;46902;52.920;6.536;2023-02-14T15:06:02;29.25;;;23.15;;
61015;SDS011;46902;52.920;6.536;2023-02-14T15:08:30;29.00;;;23.88;;
61015;SDS011;46902;52.920;6.536;2023-02-14T15:13:32;28.50;;;22.73;;
61015;SDS011;46902;52.920;6.536;2023-02-14T15:18:59;28.27;;;22.13;;
61015;SDS011;46902;52.920;6.536;2023-02-14T15:21:33;24.95;;;22.25;;
61015;SDS011;46902;52.920;6.536;2023-02-14T15:24:00;27.25;;;22.65;;
61015;SDS011;46902;52.920;6.536;2023-02-14T15:26:28;27.60;;;21.10;;
61015;SDS011;46902;52.920;6.536;2023-02-14T15:29:00;27.48;;;21.52;;
61015;SDS011;46902;52.920;6.536;2023-02-14T15:31:33;29.45;;;22.33;;
61015;SDS011;46902;52.920;6.536;2023-02-14T15:34:02;28.25;;;22.08;;
61015;SDS011;46902;52.920;6.536;2023-02-14T15:36:30;25.63;;;21.98;;
61015;SDS011;46902;52.920;6.536;2023-02-14T15:38:57;29.05;;;21.63;;
61015;SDS011;46902;52.920;6.536;2023-02-14T15:41:26;29.58;;;21.85;;
61015;SDS011;46902;52.920;6.536;2023-02-14T15:43:53;27.83;;;21.80;;
61015;SDS011;46902;52.920;6.536;2023-02-14T15:48:52;27.70;;;21.90;;
61015;SDS011;46902;52.920;6.536;2023-02-14T15:51:23;26.55;;;22.52;;
61015;SDS011;46902;52.920;6.536;2023-02-14T15:53:52;30.02;;;23.05;;
61015;SDS011;46902;52.920;6.536;2023-02-14T15:56:32;26.20;;;20.83;;
61015;SDS011;46902;52.920;6.536;2023-02-14T15:59:11;26.25;;;21.80;;
61015;SDS011;46902;52.920;6.536;2023-02-14T16:01:43;25.20;;;22.15;;
61015;SDS011;46902;52.920;6.536;2023-02-14T16:04:23;31.98;;;23.65;;
61015;SDS011;46902;52.920;6.536;2023-02-14T16:10:12;28.55;;;22.40;;
61015;SDS011;46902;52.920;6.536;2023-02-14T16:12:57;28.73;;;22.15;;
61015;SDS011;46902;52.920;6.536;2023-02-14T16:15:32;29.80;;;23.05;;
61015;SDS011;46902;52.920;6.536;2023-02-14T16:18:00;30.92;;;23.27;;
61015;SDS011;46902;52.920;6.536;2023-02-14T16:20:42;31.45;;;24.17;;
61015;SDS011;46902;52.920;6.536;2023-02-14T16:23:27;27.23;;;22.30;;
61015;SDS011;46902;52.920;6.536;2023-02-14T16:25:53;29.43;;;21.83;;
61015;SDS011;46902;52.920;6.536;2023-02-14T16:28:22;30.67;;;23.45;;
61015;SDS011;46902;52.920;6.536;2023-02-14T16:30:53;30.77;;;24.23;;
61015;SDS011;46902;52.920;6.536;2023-02-14T16:33:21;31.58;;;23.95;;
61015;SDS011;46902;52.920;6.536;2023-02-14T16:35:50;30.67;;;23.58;;
61015;SDS011;46902;52.920;6.536;2023-02-14T16:38:16;28.98;;;23.65;;
61015;SDS011;46902;52.920;6.536;2023-02-14T16:40:44;29.90;;;24.10;;
61015;SDS011;46902;52.920;6.536;2023-02-14T16:43:16;28.92;;;24.33;;
61015;SDS011;46902;52.920;6.536;2023-02-14T16:45:43;31.90;;;26.38;;
61015;SDS011;46902;52.920;6.536;2023-02-14T16:48:09;31.10;;;24.52;;
61015;SDS011;46902;52.920;6.536;2023-02-14T16:50:35;32.47;;;23.73;;
61015;SDS011;46902;52.920;6.536;2023-02-14T16:53:04;31.63;;;23.88;;
61015;SDS011;46902;52.920;6.536;2023-02-14T16:55:31;35.55;;;24.52;;
61015;SDS011;46902;52.920;6.536;2023-02-14T16:57:57;29.80;;;24.63;;
61015;SDS011;46902;52.920;6.536;2023-02-14T17:00:26;29.70;;;24.13;;
61015;SDS011;46902;52.920;6.536;2023-02-14T17:02:53;29.90;;;25.10;;
61015;SDS011;46902;52.920;6.536;2023-02-14T17:05:29;31.15;;;24.45;;
61015;SDS011;46902;52.920;6.536;2023-02-14T17:07:56;30.95;;;24.20;;
61015;SDS011;46902;52.920;6.536;2023-02-14T17:10:22;25.92;;;22.20;;
61015;SDS011;46902;52.920;6.536;2023-02-14T17:12:47;28.95;;;23.98;;